sensor_id;sensor_type;location;lat;lon;timestamp;temperature;humidity
25328;DHT22;13279;51.300;12.394;2023-03-26T00:01:20;8.60;99.90
25328;DHT22;13279;51.300;12.394;2023-03-26T00:03:50;8.60;99.90
25328;DHT22;13279;51.300;12.394;2023-03-26T00:06:21;8.60;99.90
25328;DHT22;13279;51.300;12.394;2023-03-26T00:08:51;8.40;99.90
25328;DHT22;13279;51.300;12.394;2023-03-26T00:11:21;8.40;99.90
25328;DHT22;13279;51.300;12.394;2023-03-26T00:13:48;8.30;99.90
25328;DHT22;13279;51.300;12.394;2023-03-26T00:16:19;8.30;99.90
25328;DHT22;13279;51.300;12.394;2023-03-26T00:18:47;8.20;99.90
25328;DHT22;13279;51.300;12.394;2023-03-26T00:21:21;8.20;99.90
25328;DHT22;13279;51.300;12.394;2023-03-26T00:23:52;8.20;99.90
25328;DHT22;13279;51.300;12.394;2023-03-26T00:26:20;8.10;99.90
25328;DHT22;13279;51.300;12.394;2023-03-26T00:28:49;8.10;99.90
25328;DHT22;13279;51.300;12.394;2023-03-26T00:31:17;8.10;99.90
25328;DHT22;13279;51.300;12.394;2023-03-26T00:33:44;8.10;99.90
25328;DHT22;13279;51.300;12.394;2023-03-26T00:36:13;8.10;99.90
25328;DHT22;13279;51.300;12.394;2023-03-26T00:38:43;8.10;99.90
25328;DHT22;13279;51.300;12.394;2023-03-26T00:41:14;8.10;99.90
25328;DHT22;13279;51.300;12.394;2023-03-26T00:43:53;8.10;99.90
25328;DHT22;13279;51.300;12.394;2023-03-26T00:46:22;8.10;99.90
25328;DHT22;13279;51.300;12.394;2023-03-26T00:48:50;8.10;99.90
25328;DHT22;13279;51.300;12.394;2023-03-26T00:51:19;8.10;99.90
25328;DHT22;13279;51.300;12.394;2023-03-26T00:53:48;8.10;99.90
25328;DHT22;13279;51.300;12.394;2023-03-26T00:56:18;8.10;99.90
25328;DHT22;13279;51.300;12.394;2023-03-26T00:58:45;8.10;99.90
25328;DHT22;13279;51.300;12.394;2023-03-26T01:01:17;8.10;99.90
25328;DHT22;13279;51.300;12.394;2023-03-26T01:03:47;8.10;99.90
25328;DHT22;13279;51.300;12.394;2023-03-26T01:06:20;8.10;99.90
25328;DHT22;13279;51.300;12.394;2023-03-26T01:08:54;8.00;99.90
25328;DHT22;13279;51.300;12.394;2023-03-26T01:11:30;8.00;99.90
25328;DHT22;13279;51.300;12.394;2023-03-26T01:14:01;8.00;99.90
25328;DHT22;13279;51.300;12.394;2023-03-26T01:16:35;8.00;99.90
25328;DHT22;13279;51.300;12.394;2023-03-26T01:19:04;7.90;99.90
25328;DHT22;13279;51.300;12.394;2023-03-26T01:21:35;7.90;99.90
25328;DHT22;13279;51.300;12.394;2023-03-26T01:24:07;8.00;99.90
25328;DHT22;13279;51.300;12.394;2023-03-26T01:26:51;8.00;99.90
25328;DHT22;13279;51.300;12.394;2023-03-26T01:29:29;8.00;99.90
25328;DHT22;13279;51.300;12.394;2023-03-26T01:32:09;8.00;99.90
25328;DHT22;13279;51.300;12.394;2023-03-26T01:34:46;8.00;99.90
25328;DHT22;13279;51.300;12.394;2023-03-26T01:37:23;8.00;99.90
25328;DHT22;13279;51.300;12.394;2023-03-26T01:39:55;8.00;99.90
25328;DHT22;13279;51.300;12.394;2023-03-26T01:42:35;8.10;99.90
25328;DHT22;13279;51.300;12.394;2023-03-26T01:45:09;8.00;99.90
25328;DHT22;13279;51.300;12.394;2023-03-26T01:47:39;8.00;99.90
25328;DHT22;13279;51.300;12.394;2023-03-26T01:50:08;8.00;99.90
25328;DHT22;13279;51.300;12.394;2023-03-26T01:52:36;8.00;99.90
25328;DHT22;13279;51.300;12.394;2023-03-26T01:55:07;8.00;99.90
25328;DHT22;13279;51.300;12.394;2023-03-26T01:57:44;8.00;99.90
25328;DHT22;13279;51.300;12.394;2023-03-26T02:00:20;8.00;99.90
25328;DHT22;13279;51.300;12.394;2023-03-26T02:03:08;8.00;99.90
25328;DHT22;13279;51.300;12.394;2023-03-26T02:05:47;8.00;99.90
25328;DHT22;13279;51.300;12.394;2023-03-26T02:08:21;8.00;99.90
25328;DHT22;13279;51.300;12.394;2023-03-26T02:10:54;8.00;99.90
25328;DHT22;13279;51.300;12.394;2023-03-26T02:13:23;8.00;99.90
25328;DHT22;13279;51.300;12.394;2023-03-26T02:15:56;8.00;99.90
25328;DHT22;13279;51.300;12.394;2023-03-26T02:18:25;8.00;99.90
25328;DHT22;13279;51.300;12.394;2023-03-26T02:21:03;7.90;99.90
25328;DHT22;13279;51.300;12.394;2023-03-26T02:23:31;7.90;99.90
25328;DHT22;13279;51.300;12.394;2023-03-26T02:26:07;7.80;99.90
25328;DHT22;13279;51.300;12.394;2023-03-26T02:28:42;7.80;99.90
25328;DHT22;13279;51.300;12.394;2023-03-26T02:31:10;7.80;99.90
25328;DHT22;13279;51.300;12.394;2023-03-26T02:33:39;7.80;99.90
25328;DHT22;13279;51.300;12.394;2023-03-26T02:36:07;7.70;99.90
25328;DHT22;13279;51.300;12.394;2023-03-26T02:38:40;7.80;99.90
25328;DHT22;13279;51.300;12.394;2023-03-26T02:41:09;7.80;99.90
25328;DHT22;13279;51.300;12.394;2023-03-26T02:43:52;7.80;99.90
25328;DHT22;13279;51.300;12.394;2023-03-26T02:46:23;7.80;99.90
25328;DHT22;13279;51.300;12.394;2023-03-26T02:48:57;7.70;99.90
25328;DHT22;13279;51.300;12.394;2023-03-26T02:51:25;7.70;99.90
25328;DHT22;13279;51.300;12.394;2023-03-26T02:54:09;7.70;99.90
25328;DHT22;13279;51.300;12.394;2023-03-26T02:56:44;7.70;99.90
25328;DHT22;13279;51.300;12.394;2023-03-26T02:59:23;7.70;99.90
25328;DHT22;13279;51.300;12.394;2023-03-26T03:02:10;7.70;99.90
25328;DHT22;13279;51.300;12.394;2023-03-26T03:04:40;7.70;99.90
25328;DHT22;13279;51.300;12.394;2023-03-26T03:07:08;7.70;99.90
25328;DHT22;13279;51.300;12.394;2023-03-26T03:09:39;7.60;99.90
25328;DHT22;13279;51.300;12.394;2023-03-26T03:12:40;7.70;99.90
25328;DHT22;13279;51.300;12.394;2023-03-26T03:15:10;7.70;99.90
25328;DHT22;13279;51.300;12.394;2023-03-26T03:17:37;7.70;99.90
25328;DHT22;13279;51.300;12.394;2023-03-26T03:20:07;7.80;99.90
25328;DHT22;13279;51.300;12.394;2023-03-26T03:22:38;7.80;99.90
25328;DHT22;13279;51.300;12.394;2023-03-26T03:25:07;7.80;99.90
25328;DHT22;13279;51.300;12.394;2023-03-26T03:27:43;7.80;99.90
25328;DHT22;13279;51.300;12.394;2023-03-26T03:30:13;7.80;99.90
25328;DHT22;13279;51.300;12.394;2023-03-26T03:32:46;7.80;99.90
25328;DHT22;13279;51.300;12.394;2023-03-26T03:35:19;7.80;99.90
25328;DHT22;13279;51.300;12.394;2023-03-26T03:37:50;7.80;99.90
25328;DHT22;13279;51.300;12.394;2023-03-26T03:40:18;7.80;99.90
25328;DHT22;13279;51.300;12.394;2023-03-26T03:42:47;7.80;99.90
25328;DHT22;13279;51.300;12.394;2023-03-26T03:45:24;7.80;99.90
25328;DHT22;13279;51.300;12.394;2023-03-26T03:47:51;7.80;99.90
25328;DHT22;13279;51.300;12.394;2023-03-26T03:50:26;7.70;99.90
25328;DHT22;13279;51.300;12.394;2023-03-26T03:53:17;7.70;99.90
25328;DHT22;13279;51.300;12.394;2023-03-26T03:55:49;7.80;99.90
25328;DHT22;13279;51.300;12.394;2023-03-26T03:58:23;7.80;99.90
25328;DHT22;13279;51.300;12.394;2023-03-26T04:00:55;7.80;99.90
25328;DHT22;13279;51.300;12.394;2023-03-26T04:03:53;7.80;99.90
25328;DHT22;13279;51.300;12.394;2023-03-26T04:06:24;7.80;99.90
25328;DHT22;13279;51.300;12.394;2023-03-26T04:08:55;7.90;99.90
25328;DHT22;13279;51.300;12.394;2023-03-26T04:11:23;7.80;99.90
25328;DHT22;13279;51.300;12.394;2023-03-26T04:14:11;7.70;99.90
25328;DHT22;13279;51.300;12.394;2023-03-26T04:16:53;7.80;99.90
25328;DHT22;13279;51.300;12.394;2023-03-26T04:19:22;7.80;99.90
25328;DHT22;13279;51.300;12.394;2023-03-26T04:21:50;7.80;99.90
25328;DHT22;13279;51.300;12.394;2023-03-26T04:24:19;7.80;99.90
25328;DHT22;13279;51.300;12.394;2023-03-26T04:27:18;7.80;99.90
25328;DHT22;13279;51.300;12.394;2023-03-26T04:29:52;7.90;99.90
25328;DHT22;13279;51.300;12.394;2023-03-26T04:32:23;7.90;99.90
25328;DHT22;13279;51.300;12.394;2023-03-26T04:34:56;7.90;99.90
25328;DHT22;13279;51.300;12.394;2023-03-26T04:37:29;8.00;99.90
25328;DHT22;13279;51.300;12.394;2023-03-26T04:40:26;8.00;99.90
25328;DHT22;13279;51.300;12.394;2023-03-26T04:43:07;7.90;99.90
25328;DHT22;13279;51.300;12.394;2023-03-26T04:45:54;7.90;99.90
25328;DHT22;13279;51.300;12.394;2023-03-26T04:48:25;7.90;99.90
25328;DHT22;13279;51.300;12.394;2023-03-26T04:50:53;7.90;99.90
25328;DHT22;13279;51.300;12.394;2023-03-26T04:53:22;7.80;99.90
25328;DHT22;13279;51.300;12.394;2023-03-26T04:56:10;7.80;99.90
25328;DHT22;13279;51.300;12.394;2023-03-26T04:59:16;7.80;99.90
25328;DHT22;13279;51.300;12.394;2023-03-26T05:01:45;7.90;99.90
25328;DHT22;13279;51.300;12.394;2023-03-26T05:04:15;7.90;99.90
25328;DHT22;13279;51.300;12.394;2023-03-26T05:06:43;7.90;99.90
25328;DHT22;13279;51.300;12.394;2023-03-26T05:09:19;7.90;99.90
25328;DHT22;13279;51.300;12.394;2023-03-26T05:12:09;7.90;99.90
25328;DHT22;13279;51.300;12.394;2023-03-26T05:15:04;7.90;99.90
25328;DHT22;13279;51.300;12.394;2023-03-26T05:17:47;7.90;99.90
25328;DHT22;13279;51.300;12.394;2023-03-26T05:20:24;8.00;99.90
25328;DHT22;13279;51.300;12.394;2023-03-26T05:22:52;8.00;99.90
25328;DHT22;13279;51.300;12.394;2023-03-26T05:25:24;8.00;99.90
25328;DHT22;13279;51.300;12.394;2023-03-26T05:27:53;8.00;99.90
25328;DHT22;13279;51.300;12.394;2023-03-26T05:30:24;8.00;99.90
25328;DHT22;13279;51.300;12.394;2023-03-26T05:32:57;7.90;99.90
25328;DHT22;13279;51.300;12.394;2023-03-26T05:35:29;8.00;99.90
25328;DHT22;13279;51.300;12.394;2023-03-26T05:37:57;8.00;99.90
25328;DHT22;13279;51.300;12.394;2023-03-26T05:40:25;8.00;99.90
25328;DHT22;13279;51.300;12.394;2023-03-26T05:42:56;8.00;99.90
25328;DHT22;13279;51.300;12.394;2023-03-26T05:45:36;8.00;99.90
25328;DHT22;13279;51.300;12.394;2023-03-26T05:48:24;8.00;99.90
25328;DHT22;13279;51.300;12.394;2023-03-26T05:50:53;8.00;99.90
25328;DHT22;13279;51.300;12.394;2023-03-26T05:53:23;8.00;99.90
25328;DHT22;13279;51.300;12.394;2023-03-26T05:56:09;8.00;99.90
25328;DHT22;13279;51.300;12.394;2023-03-26T05:58:39;8.10;99.90
25328;DHT22;13279;51.300;12.394;2023-03-26T06:01:27;8.10;99.90
25328;DHT22;13279;51.300;12.394;2023-03-26T06:04:25;8.10;99.90
25328;DHT22;13279;51.300;12.394;2023-03-26T06:07:14;8.20;99.90
25328;DHT22;13279;51.300;12.394;2023-03-26T06:09:46;8.20;99.90
25328;DHT22;13279;51.300;12.394;2023-03-26T06:12:15;8.20;99.90
25328;DHT22;13279;51.300;12.394;2023-03-26T06:14:43;8.20;99.90
25328;DHT22;13279;51.300;12.394;2023-03-26T06:17:16;8.20;99.90
25328;DHT22;13279;51.300;12.394;2023-03-26T06:20:05;8.20;99.90
25328;DHT22;13279;51.300;12.394;2023-03-26T06:22:37;8.30;99.90
25328;DHT22;13279;51.300;12.394;2023-03-26T06:25:20;8.20;99.90
25328;DHT22;13279;51.300;12.394;2023-03-26T06:28:13;8.30;99.90
25328;DHT22;13279;51.300;12.394;2023-03-26T06:30:59;8.20;99.90
25328;DHT22;13279;51.300;12.394;2023-03-26T06:33:32;8.30;99.90
25328;DHT22;13279;51.300;12.394;2023-03-26T06:36:02;8.30;99.90
25328;DHT22;13279;51.300;12.394;2023-03-26T06:38:30;8.30;99.90
25328;DHT22;13279;51.300;12.394;2023-03-26T06:41:04;8.30;99.90
25328;DHT22;13279;51.300;12.394;2023-03-26T06:43:51;8.40;99.90
25328;DHT22;13279;51.300;12.394;2023-03-26T06:46:37;8.40;99.90
25328;DHT22;13279;51.300;12.394;2023-03-26T06:49:23;8.50;99.90
25328;DHT22;13279;51.300;12.394;2023-03-26T06:52:18;8.50;99.90
25328;DHT22;13279;51.300;12.394;2023-03-26T06:55:06;8.50;99.90
25328;DHT22;13279;51.300;12.394;2023-03-26T06:57:48;8.40;99.90
25328;DHT22;13279;51.300;12.394;2023-03-26T07:00:38;8.50;99.90
25328;DHT22;13279;51.300;12.394;2023-03-26T07:03:26;8.50;99.90
25328;DHT22;13279;51.300;12.394;2023-03-26T07:06:12;8.60;99.90
25328;DHT22;13279;51.300;12.394;2023-03-26T07:08:50;8.60;99.90
25328;DHT22;13279;51.300;12.394;2023-03-26T07:11:44;8.70;99.90
25328;DHT22;13279;51.300;12.394;2023-03-26T07:14:31;8.70;99.90
25328;DHT22;13279;51.300;12.394;2023-03-26T07:17:14;8.80;99.90
25328;DHT22;13279;51.300;12.394;2023-03-26T07:19:51;8.90;99.90
25328;DHT22;13279;51.300;12.394;2023-03-26T07:22:23;8.90;99.90
25328;DHT22;13279;51.300;12.394;2023-03-26T07:25:05;9.00;99.90
25328;DHT22;13279;51.300;12.394;2023-03-26T07:27:59;9.10;99.90
25328;DHT22;13279;51.300;12.394;2023-03-26T07:30:58;9.10;99.90
25328;DHT22;13279;51.300;12.394;2023-03-26T07:33:48;9.20;99.90
25328;DHT22;13279;51.300;12.394;2023-03-26T07:36:51;9.30;99.90
25328;DHT22;13279;51.300;12.394;2023-03-26T07:39:55;9.30;99.90
25328;DHT22;13279;51.300;12.394;2023-03-26T07:42:59;9.40;99.90
25328;DHT22;13279;51.300;12.394;2023-03-26T07:45:53;9.50;99.90
25328;DHT22;13279;51.300;12.394;2023-03-26T07:48:50;9.60;99.90
25328;DHT22;13279;51.300;12.394;2023-03-26T07:51:55;9.70;99.90
25328;DHT22;13279;51.300;12.394;2023-03-26T07:54:44;9.80;99.90
25328;DHT22;13279;51.300;12.394;2023-03-26T07:57:39;9.80;99.90
25328;DHT22;13279;51.300;12.394;2023-03-26T08:00:33;9.90;99.90
25328;DHT22;13279;51.300;12.394;2023-03-26T08:03:30;9.90;99.90
25328;DHT22;13279;51.300;12.394;2023-03-26T08:06:37;9.90;99.90
25328;DHT22;13279;51.300;12.394;2023-03-26T08:09:17;9.80;99.90
25328;DHT22;13279;51.300;12.394;2023-03-26T08:12:30;9.90;99.90
25328;DHT22;13279;51.300;12.394;2023-03-26T08:15:09;9.90;99.90
25328;DHT22;13279;51.300;12.394;2023-03-26T08:17:43;9.90;99.90
25328;DHT22;13279;51.300;12.394;2023-03-26T08:20:21;10.00;99.90
25328;DHT22;13279;51.300;12.394;2023-03-26T08:22:59;10.00;99.90
25328;DHT22;13279;51.300;12.394;2023-03-26T08:25:32;10.00;99.90
25328;DHT22;13279;51.300;12.394;2023-03-26T08:28:09;10.10;99.90
25328;DHT22;13279;51.300;12.394;2023-03-26T08:30:39;10.20;99.90
25328;DHT22;13279;51.300;12.394;2023-03-26T08:33:13;10.20;99.90
25328;DHT22;13279;51.300;12.394;2023-03-26T08:35:43;10.30;99.90
25328;DHT22;13279;51.300;12.394;2023-03-26T08:38:15;10.40;99.90
25328;DHT22;13279;51.300;12.394;2023-03-26T08:41:01;10.60;99.90
25328;DHT22;13279;51.300;12.394;2023-03-26T08:47:06;10.80;99.90
25328;DHT22;13279;51.300;12.394;2023-03-26T08:50:01;10.80;99.90
25328;DHT22;13279;51.300;12.394;2023-03-26T08:53:19;10.90;99.90
25328;DHT22;13279;51.300;12.394;2023-03-26T08:56:06;11.10;99.90
25328;DHT22;13279;51.300;12.394;2023-03-26T09:02:24;11.10;99.90
25328;DHT22;13279;51.300;12.394;2023-03-26T09:08:48;11.20;99.90
25328;DHT22;13279;51.300;12.394;2023-03-26T09:14:54;11.70;99.90
25328;DHT22;13279;51.300;12.394;2023-03-26T09:17:57;11.90;99.90
25328;DHT22;13279;51.300;12.394;2023-03-26T09:26:43;11.60;99.90
25328;DHT22;13279;51.300;12.394;2023-03-26T09:32:49;11.80;99.90
25328;DHT22;13279;51.300;12.394;2023-03-26T09:35:49;11.90;99.90
25328;DHT22;13279;51.300;12.394;2023-03-26T09:38:31;11.90;99.90
25328;DHT22;13279;51.300;12.394;2023-03-26T09:41:09;11.90;99.90
25328;DHT22;13279;51.300;12.394;2023-03-26T09:44:01;11.80;99.90
25328;DHT22;13279;51.300;12.394;2023-03-26T09:46:35;11.70;99.90
25328;DHT22;13279;51.300;12.394;2023-03-26T09:49:15;11.50;99.90
25328;DHT22;13279;51.300;12.394;2023-03-26T09:59:03;11.50;99.90
25328;DHT22;13279;51.300;12.394;2023-03-26T10:02:15;11.50;99.90
25328;DHT22;13279;51.300;12.394;2023-03-26T10:05:15;11.80;99.90
25328;DHT22;13279;51.300;12.394;2023-03-26T10:08:32;11.80;99.90
25328;DHT22;13279;51.300;12.394;2023-03-26T10:11:55;12.10;99.90
25328;DHT22;13279;51.300;12.394;2023-03-26T10:14:31;12.40;99.90
25328;DHT22;13279;51.300;12.394;2023-03-26T10:17:17;12.70;99.90
25328;DHT22;13279;51.300;12.394;2023-03-26T10:19:56;12.90;99.90
25328;DHT22;13279;51.300;12.394;2023-03-26T10:22:42;12.90;99.90
25328;DHT22;13279;51.300;12.394;2023-03-26T10:25:31;13.00;99.90
25328;DHT22;13279;51.300;12.394;2023-03-26T10:28:14;13.00;99.90
25328;DHT22;13279;51.300;12.394;2023-03-26T10:33:56;13.10;99.90
25328;DHT22;13279;51.300;12.394;2023-03-26T10:36:29;12.90;99.90
25328;DHT22;13279;51.300;12.394;2023-03-26T10:39:19;12.50;99.90
25328;DHT22;13279;51.300;12.394;2023-03-26T10:41:58;12.40;99.90
25328;DHT22;13279;51.300;12.394;2023-03-26T10:44:40;12.30;99.90
25328;DHT22;13279;51.300;12.394;2023-03-26T10:47:33;12.40;99.90
25328;DHT22;13279;51.300;12.394;2023-03-26T10:50:25;12.70;99.90
25328;DHT22;13279;51.300;12.394;2023-03-26T10:52:58;13.10;99.90
25328;DHT22;13279;51.300;12.394;2023-03-26T10:58:21;12.90;99.90
25328;DHT22;13279;51.300;12.394;2023-03-26T11:01:34;13.10;99.90
25328;DHT22;13279;51.300;12.394;2023-03-26T11:08:24;13.00;99.90
25328;DHT22;13279;51.300;12.394;2023-03-26T11:11:20;12.80;99.90
25328;DHT22;13279;51.300;12.394;2023-03-26T11:13:55;12.60;99.90
25328;DHT22;13279;51.300;12.394;2023-03-26T11:16:46;12.40;99.90
25328;DHT22;13279;51.300;12.394;2023-03-26T11:19:20;12.40;99.90
25328;DHT22;13279;51.300;12.394;2023-03-26T11:21:57;12.50;99.90
25328;DHT22;13279;51.300;12.394;2023-03-26T11:24:44;12.50;99.90
25328;DHT22;13279;51.300;12.394;2023-03-26T11:27:21;12.60;99.90
25328;DHT22;13279;51.300;12.394;2023-03-26T11:30:02;12.60;99.90
25328;DHT22;13279;51.300;12.394;2023-03-26T11:32:40;12.50;99.90
25328;DHT22;13279;51.300;12.394;2023-03-26T11:35:16;12.50;99.90
25328;DHT22;13279;51.300;12.394;2023-03-26T11:37:50;12.50;99.90
25328;DHT22;13279;51.300;12.394;2023-03-26T11:40:24;12.30;99.90
25328;DHT22;13279;51.300;12.394;2023-03-26T11:42:57;12.30;99.90
25328;DHT22;13279;51.300;12.394;2023-03-26T11:45:29;12.30;99.90
25328;DHT22;13279;51.300;12.394;2023-03-26T11:48:03;12.30;99.90
25328;DHT22;13279;51.300;12.394;2023-03-26T11:50:37;12.30;99.90
25328;DHT22;13279;51.300;12.394;2023-03-26T11:53:11;12.30;99.90
25328;DHT22;13279;51.300;12.394;2023-03-26T11:55:45;12.20;99.90
25328;DHT22;13279;51.300;12.394;2023-03-26T11:58:23;12.20;99.90
25328;DHT22;13279;51.300;12.394;2023-03-26T12:00:53;12.30;99.90
25328;DHT22;13279;51.300;12.394;2023-03-26T12:03:22;12.30;99.90
25328;DHT22;13279;51.300;12.394;2023-03-26T12:05:51;12.40;99.90
25328;DHT22;13279;51.300;12.394;2023-03-26T12:08:29;12.50;99.90
25328;DHT22;13279;51.300;12.394;2023-03-26T12:11:03;12.50;99.90
25328;DHT22;13279;51.300;12.394;2023-03-26T12:13:34;12.50;99.90
25328;DHT22;13279;51.300;12.394;2023-03-26T12:16:08;12.40;99.90
25328;DHT22;13279;51.300;12.394;2023-03-26T12:18:37;12.30;99.90
25328;DHT22;13279;51.300;12.394;2023-03-26T12:21:10;12.30;99.90
25328;DHT22;13279;51.300;12.394;2023-03-26T12:23:53;12.30;99.90
25328;DHT22;13279;51.300;12.394;2023-03-26T12:26:33;12.30;99.90
25328;DHT22;13279;51.300;12.394;2023-03-26T12:29:15;12.30;99.90
25328;DHT22;13279;51.300;12.394;2023-03-26T12:31:55;12.30;99.90
25328;DHT22;13279;51.300;12.394;2023-03-26T12:34:28;12.10;99.90
25328;DHT22;13279;51.300;12.394;2023-03-26T12:37:00;11.80;99.90
25328;DHT22;13279;51.300;12.394;2023-03-26T12:39:36;11.40;99.90
25328;DHT22;13279;51.300;12.394;2023-03-26T12:42:24;10.30;99.90
25328;DHT22;13279;51.300;12.394;2023-03-26T12:44:52;9.40;99.90
25328;DHT22;13279;51.300;12.394;2023-03-26T12:47:24;9.00;99.90
25328;DHT22;13279;51.300;12.394;2023-03-26T12:49:53;8.80;99.90
25328;DHT22;13279;51.300;12.394;2023-03-26T12:52:52;8.70;99.90
25328;DHT22;13279;51.300;12.394;2023-03-26T12:55:41;8.70;99.90
25328;DHT22;13279;51.300;12.394;2023-03-26T12:58:37;8.60;99.90
25328;DHT22;13279;51.300;12.394;2023-03-26T13:01:14;8.60;99.90
25328;DHT22;13279;51.300;12.394;2023-03-26T13:04:14;8.60;99.90
25328;DHT22;13279;51.300;12.394;2023-03-26T13:06:45;8.70;99.90
25328;DHT22;13279;51.300;12.394;2023-03-26T13:09:41;8.70;99.90
25328;DHT22;13279;51.300;12.394;2023-03-26T13:12:19;8.80;99.90
25328;DHT22;13279;51.300;12.394;2023-03-26T13:17:58;9.10;99.90
25328;DHT22;13279;51.300;12.394;2023-03-26T13:20:38;9.20;99.90
25328;DHT22;13279;51.300;12.394;2023-03-26T13:23:19;9.20;99.90
25328;DHT22;13279;51.300;12.394;2023-03-26T13:25:56;9.10;99.90
25328;DHT22;13279;51.300;12.394;2023-03-26T13:28:32;9.00;99.90
25328;DHT22;13279;51.300;12.394;2023-03-26T13:31:12;9.00;99.90
25328;DHT22;13279;51.300;12.394;2023-03-26T13:33:49;9.20;99.90
25328;DHT22;13279;51.300;12.394;2023-03-26T13:36:30;9.30;99.90
25328;DHT22;13279;51.300;12.394;2023-03-26T13:39:14;9.20;99.90
25328;DHT22;13279;51.300;12.394;2023-03-26T13:41:54;9.30;99.90
25328;DHT22;13279;51.300;12.394;2023-03-26T13:44:32;9.20;99.90
25328;DHT22;13279;51.300;12.394;2023-03-26T13:47:08;9.20;99.90
25328;DHT22;13279;51.300;12.394;2023-03-26T13:49:40;9.10;99.90
25328;DHT22;13279;51.300;12.394;2023-03-26T13:52:11;9.10;99.90
25328;DHT22;13279;51.300;12.394;2023-03-26T13:54:45;9.10;99.90
25328;DHT22;13279;51.300;12.394;2023-03-26T13:57:20;9.10;99.90
25328;DHT22;13279;51.300;12.394;2023-03-26T13:59:54;9.00;99.90
25328;DHT22;13279;51.300;12.394;2023-03-26T14:02:30;8.90;99.90
25328;DHT22;13279;51.300;12.394;2023-03-26T14:05:04;8.90;99.90
25328;DHT22;13279;51.300;12.394;2023-03-26T14:07:37;8.80;99.90
25328;DHT22;13279;51.300;12.394;2023-03-26T14:10:10;8.70;99.90
25328;DHT22;13279;51.300;12.394;2023-03-26T14:12:51;8.80;99.90
25328;DHT22;13279;51.300;12.394;2023-03-26T14:15:24;8.80;99.90
25328;DHT22;13279;51.300;12.394;2023-03-26T14:17:58;8.60;99.90
25328;DHT22;13279;51.300;12.394;2023-03-26T14:26:46;8.50;99.90
25328;DHT22;13279;51.300;12.394;2023-03-26T14:29:44;8.40;99.90
25328;DHT22;13279;51.300;12.394;2023-03-26T14:32:27;8.40;99.90
25328;DHT22;13279;51.300;12.394;2023-03-26T14:35:10;8.30;99.90
25328;DHT22;13279;51.300;12.394;2023-03-26T14:38:12;8.20;99.90
25328;DHT22;13279;51.300;12.394;2023-03-26T14:41:05;8.20;99.90
25328;DHT22;13279;51.300;12.394;2023-03-26T14:46:49;8.40;99.90
25328;DHT22;13279;51.300;12.394;2023-03-26T14:49:57;8.40;99.90
25328;DHT22;13279;51.300;12.394;2023-03-26T14:52:40;8.30;99.90
25328;DHT22;13279;51.300;12.394;2023-03-26T14:55:13;8.20;99.90
25328;DHT22;13279;51.300;12.394;2023-03-26T14:57:55;8.30;99.90
25328;DHT22;13279;51.300;12.394;2023-03-26T15:04:16;8.30;99.90
25328;DHT22;13279;51.300;12.394;2023-03-26T15:13:38;8.10;99.90
25328;DHT22;13279;51.300;12.394;2023-03-26T15:16:42;8.10;99.90
25328;DHT22;13279;51.300;12.394;2023-03-26T15:22:48;8.10;99.90
25328;DHT22;13279;51.300;12.394;2023-03-26T15:29:00;8.10;99.90
25328;DHT22;13279;51.300;12.394;2023-03-26T15:31:54;8.10;99.90
25328;DHT22;13279;51.300;12.394;2023-03-26T15:35:02;8.10;99.90
25328;DHT22;13279;51.300;12.394;2023-03-26T15:38:05;8.00;99.90
25328;DHT22;13279;51.300;12.394;2023-03-26T15:40:48;8.00;99.90
25328;DHT22;13279;51.300;12.394;2023-03-26T15:43:19;8.10;99.90
25328;DHT22;13279;51.300;12.394;2023-03-26T15:45:50;8.20;99.90
25328;DHT22;13279;51.300;12.394;2023-03-26T15:48:35;8.20;99.90
25328;DHT22;13279;51.300;12.394;2023-03-26T15:51:33;8.20;99.90
25328;DHT22;13279;51.300;12.394;2023-03-26T15:54:13;8.10;99.90
25328;DHT22;13279;51.300;12.394;2023-03-26T15:59:41;8.10;99.90
25328;DHT22;13279;51.300;12.394;2023-03-26T16:02:24;8.00;99.90
25328;DHT22;13279;51.300;12.394;2023-03-26T16:04:54;8.00;99.90
25328;DHT22;13279;51.300;12.394;2023-03-26T16:07:45;8.00;99.90
25328;DHT22;13279;51.300;12.394;2023-03-26T16:10:26;8.00;99.90
25328;DHT22;13279;51.300;12.394;2023-03-26T16:13:32;8.10;99.90
25328;DHT22;13279;51.300;12.394;2023-03-26T16:16:21;8.10;99.90
25328;DHT22;13279;51.300;12.394;2023-03-26T16:22:34;8.10;99.90
25328;DHT22;13279;51.300;12.394;2023-03-26T16:25:27;8.10;99.90
25328;DHT22;13279;51.300;12.394;2023-03-26T16:28:32;8.10;99.90
25328;DHT22;13279;51.300;12.394;2023-03-26T16:31:32;8.00;99.90
25328;DHT22;13279;51.300;12.394;2023-03-26T16:34:44;8.00;99.90
25328;DHT22;13279;51.300;12.394;2023-03-26T16:38:08;8.10;99.90
25328;DHT22;13279;51.300;12.394;2023-03-26T16:41:15;8.10;99.90
25328;DHT22;13279;51.300;12.394;2023-03-26T16:44:09;8.00;99.90
25328;DHT22;13279;51.300;12.394;2023-03-26T16:46:45;8.00;99.90
25328;DHT22;13279;51.300;12.394;2023-03-26T16:49:34;8.10;99.90
25328;DHT22;13279;51.300;12.394;2023-03-26T16:52:20;8.10;99.90
25328;DHT22;13279;51.300;12.394;2023-03-26T16:54:51;8.10;99.90
25328;DHT22;13279;51.300;12.394;2023-03-26T16:57:25;8.10;99.90
25328;DHT22;13279;51.300;12.394;2023-03-26T17:02:55;8.10;99.90
25328;DHT22;13279;51.300;12.394;2023-03-26T17:05:34;8.10;99.90
25328;DHT22;13279;51.300;12.394;2023-03-26T17:08:12;8.10;99.90
25328;DHT22;13279;51.300;12.394;2023-03-26T17:10:46;8.10;99.90
25328;DHT22;13279;51.300;12.394;2023-03-26T17:13:25;8.10;99.90
25328;DHT22;13279;51.300;12.394;2023-03-26T17:16:03;8.00;99.90
25328;DHT22;13279;51.300;12.394;2023-03-26T17:18:41;8.00;99.90
25328;DHT22;13279;51.300;12.394;2023-03-26T17:21:15;8.10;99.90
25328;DHT22;13279;51.300;12.394;2023-03-26T17:26:40;8.10;99.90
25328;DHT22;13279;51.300;12.394;2023-03-26T17:29:20;8.10;99.90
25328;DHT22;13279;51.300;12.394;2023-03-26T17:31:56;8.00;99.90
25328;DHT22;13279;51.300;12.394;2023-03-26T17:34:58;8.00;99.90
25328;DHT22;13279;51.300;12.394;2023-03-26T17:37:39;8.00;99.90
25328;DHT22;13279;51.300;12.394;2023-03-26T17:40:45;8.00;99.90
25328;DHT22;13279;51.300;12.394;2023-03-26T17:43:35;8.00;99.90
25328;DHT22;13279;51.300;12.394;2023-03-26T17:46:24;8.00;99.90
25328;DHT22;13279;51.300;12.394;2023-03-26T17:52:54;7.90;99.90
25328;DHT22;13279;51.300;12.394;2023-03-26T17:55:26;8.00;99.90
25328;DHT22;13279;51.300;12.394;2023-03-26T17:57:59;7.80;99.90
25328;DHT22;13279;51.300;12.394;2023-03-26T18:00:30;7.90;99.90
25328;DHT22;13279;51.300;12.394;2023-03-26T18:03:03;7.90;99.90
25328;DHT22;13279;51.300;12.394;2023-03-26T18:05:33;7.80;99.90
25328;DHT22;13279;51.300;12.394;2023-03-26T18:08:34;7.80;99.90
25328;DHT22;13279;51.300;12.394;2023-03-26T18:14:27;7.80;99.90
25328;DHT22;13279;51.300;12.394;2023-03-26T18:17:00;7.80;99.90